Havasu Lake, California
Current Conditions -  °F | °C
As of 6:56 AM on Thursday 30 Oct 2014 (Local Time) from KEED Reporting Station
Clear Clear  
Wind Chill: 65°   Ceiling: Unl
Heat Index: 65°   Visibility: 10mi
Dew Point: 22°   Wind: 0mph
Humidity: 19%   Direction: NA
Pressure: 30.03"   Gusts: NA
Location:  34.5025°N, 114.671°W
Report Text: KEED 301456Z AUTO 00000KT 10SM CLR 18/M06 A3003 RMK AO2 SLP148 T01831056 53012
Loading
Personal Weather Stations






























Interactive Weather Map
Tropical Storm Tracking
New forecast layout! Learn more

10-Day Weather Forecast

Advertisements
Track Severe Weather on mobile